4MA4 weather

J K L Heliport
New Bedford, Massachusetts, United States

Public forecast

Using degrees Fahrenheit for public forecast. Weather courtesy of forecast.io.

Closest aviation weather report (METAR) to J K L Heliport

Closest report is New Bedford Regional Airport, 4.1 nm (7.7 km) NE. Retrieved 2020/08/06 06:53 UTC (12 minutes ago):

KEWB 060653Z AUTO 00000KT 10SM OVC065 19/18 A3006 RMK AO2 SLP178 T01940183

Closest aviation forecast (TAF) to J K L Heliport

Closest forecast is Theodore Francis Green State Airport, 19.4 nm (36.0 km) WNW. Retrieved 2020/08/06 06:33 UTC (32 minutes ago):

TAF KPVD 060531Z 0606/0706 32003KT P6SM FEW250 FM061400 06003KT P6SM FEW200 FM061600 14006KT P6SM SCT150 FM061800 19006KT P6SM SCT120 FM070200 22004KT P6SM BKN050